Time;durP1;ratioP1;P1;durP2;ratioP2;P2;SDS_P1;SDS_P2;PMS_P1;PMS_P2;Temp;Humidity;BMP_temperature;BMP_pressure;BME280_temperature;BME280_humidity;BME280_pressure;Samples;Min_cycle;Max_cycle;Signal;HPM_P1;HPM_P2
2022/01/05 00:00:52;;;;;;;;;14.75;13.25;;;;;;;;5039480;28;45269;-68
2022/01/05 00:03:17;;;;;;;;;10.50;9.25;;;;;;;;5054937;28;45325;-67
2022/01/05 00:05:43;;;;;;;;;3.25;1.25;;;;;;;;5055458;28;45625;-67
2022/01/05 00:08:08;;;;;;;;;3.00;2.00;;;;;;;;5055420;28;46405;-67
2022/01/05 00:10:33;;;;;;;;;2.00;2.00;;;;;;;;5055356;28;46010;-67
2022/01/05 00:12:59;;;;;;;;;0.00;0.00;;;;;;;;5055297;28;45452;-67
2022/01/05 00:15:24;;;;;;;;;5.25;4.00;;;;;;;;5054602;28;45389;-67
2022/01/05 00:17:49;;;;;;;;;2.75;1.00;;;;;;;;5055208;28;45266;-67
2022/01/05 00:20:14;;;;;;;;;5.75;4.00;;;;;;;;5055192;28;45516;-67
2022/01/05 00:22:40;;;;;;;;;1.00;1.00;;;;;;;;5055088;28;45567;-67
2022/01/05 00:25:05;;;;;;;;;2.75;2.00;;;;;;;;5055096;28;45289;-67
2022/01/05 00:27:31;;;;;;;;;4.25;2.75;;;;;;;;5053678;28;46135;-68
2022/01/05 00:29:57;;;;;;;;;5.00;3.00;;;;;;;;5055212;28;45436;-68
2022/01/05 00:32:23;;;;;;;;;2.00;2.00;;;;;;;;5055048;28;45626;-67
2022/01/05 00:34:48;;;;;;;;;2.50;1.00;;;;;;;;5055319;28;45382;-68
2022/01/05 00:37:13;;;;;;;;;2.50;1.25;;;;;;;;5055070;28;46402;-68
2022/01/05 00:39:39;;;;;;;;;3.50;3.50;;;;;;;;5057421;28;45309;-67
2022/01/05 00:42:04;;;;;;;;;2.00;1.00;;;;;;;;5057664;28;45383;-67
2022/01/05 00:44:29;;;;;;;;;2.50;2.50;;;;;;;;5058441;28;45583;-67
2022/01/05 00:46:55;;;;;;;;;2.50;1.00;;;;;;;;5058134;28;45429;-67
2022/01/05 00:49:20;;;;;;;;;1.50;0.75;;;;;;;;5058073;28;45366;-67
2022/01/05 00:51:45;;;;;;;;;5.00;2.00;;;;;;;;5058192;28;45593;-66
2022/01/05 00:54:10;;;;;;;;;6.50;5.00;;;;;;;;5057419;28;45439;-67
2022/01/05 00:56:36;;;;;;;;;2.75;2.75;;;;;;;;5057531;28;46143;-67
2022/01/05 00:59:02;;;;;;;;;8.25;5.00;;;;;;;;5039925;28;45387;-67
2022/01/05 01:01:27;;;;;;;;;9.25;5.00;;;;;;;;5057865;28;45439;-66
2022/01/05 01:03:52;;;;;;;;;15.50;12.75;;;;;;;;5058309;28;45463;-67
2022/01/05 01:06:18;;;;;;;;;15.25;12.00;;;;;;;;5057280;28;46251;-67
2022/01/05 01:08:43;;;;;;;;;9.50;8.25;;;;;;;;5057782;28;45352;-67
2022/01/05 01:11:08;;;;;;;;;15.75;8.50;;;;;;;;5057758;28;45437;-66
2022/01/05 01:13:34;;;;;;;;;10.75;7.75;;;;;;;;5058007;28;45415;-66
2022/01/05 01:15:59;;;;;;;;;14.50;8.00;;;;;;;;5039691;28;47143;-67
2022/01/05 01:18:25;;;;;;;;;27.75;21.00;;;;;;;;5038443;28;45465;-67
2022/01/05 01:20:50;;;;;;;;;23.50;20.25;;;;;;;;5059291;28;45506;-67
2022/01/05 01:23:18;;;;;;;;;22.75;18.50;;;;;;;;5058012;28;45395;-69
2022/01/05 01:25:44;;;;;;;;;18.50;16.75;;;;;;;;5057066;28;46309;-68
2022/01/05 01:28:09;;;;;;;;;10.50;10.25;;;;;;;;5057614;28;45395;-68
2022/01/05 01:30:34;;;;;;;;;9.25;9.25;;;;;;;;5057504;28;45290;-68
2022/01/05 01:33:00;;;;;;;;;10.75;9.25;;;;;;;;5057461;28;45566;-67
2022/01/05 01:35:26;;;;;;;;;19.50;17.25;;;;;;;;5039170;28;48160;-68
2022/01/05 01:37:51;;;;;;;;;18.75;16.25;;;;;;;;5039016;28;45384;-67
2022/01/05 01:40:16;;;;;;;;;13.25;11.00;;;;;;;;5057594;28;45522;-68
2022/01/05 01:42:42;;;;;;;;;9.00;3.25;;;;;;;;5057611;28;45365;-72
2022/01/05 01:45:07;;;;;;;;;5.25;4.50;;;;;;;;5038554;28;48271;-74
2022/01/05 01:47:32;;;;;;;;;9.50;5.75;;;;;;;;5057153;28;45320;-74
2022/01/05 01:49:58;;;;;;;;;9.75;8.75;;;;;;;;5057032;28;45355;-74
2022/01/05 01:52:23;;;;;;;;;9.25;9.25;;;;;;;;5057119;28;45672;-74
2022/01/05 01:54:48;;;;;;;;;11.50;8.75;;;;;;;;5057372;28;46148;-74
2022/01/05 01:57:14;;;;;;;;;12.25;12.25;;;;;;;;5056330;28;45304;-73
2022/01/05 01:59:39;;;;;;;;;9.75;9.25;;;;;;;;5057214;28;45603;-73
2022/01/05 02:02:05;;;;;;;;;8.50;7.50;;;;;;;;5038779;28;45493;-73
2022/01/05 02:04:31;;;;;;;;;5.75;4.00;;;;;;;;5056908;28;46361;-73
2022/01/05 02:06:56;;;;;;;;;6.25;6.25;;;;;;;;5056714;28;45260;-73
2022/01/05 02:09:21;;;;;;;;;6.75;6.75;;;;;;;;5056462;28;45351;-73
2022/01/05 02:11:47;;;;;;;;;2.00;2.00;;;;;;;;5056920;28;45641;-73
2022/01/05 02:14:12;;;;;;;;;4.50;3.50;;;;;;;;5056762;28;45557;-73
2022/01/05 02:16:41;;;;;;;;;5.50;4.00;;;;;;;;5056784;28;45317;-73
2022/01/05 02:19:06;;;;;;;;;7.75;3.25;;;;;;;;5056619;28;45346;-73
2022/01/05 02:21:33;;;;;;;;;5.75;3.75;;;;;;;;5055612;28;45324;-73
2022/01/05 02:23:59;;;;;;;;;4.00;3.00;;;;;;;;5056221;28;46973;-73
2022/01/05 02:26:24;;;;;;;;;8.50;7.00;;;;;;;;5056617;28;45486;-73
2022/01/05 02:28:50;;;;;;;;;1.75;1.75;;;;;;;;5056497;28;45281;-73
2022/01/05 02:31:15;;;;;;;;;9.50;8.75;;;;;;;;5056600;28;45316;-73
2022/01/05 02:33:40;;;;;;;;;4.50;4.00;;;;;;;;5056618;28;45503;-73
2022/01/05 02:36:06;;;;;;;;;2.00;2.00;;;;;;;;5055511;28;45327;-73
2022/01/05 02:38:32;;;;;;;;;2.25;2.00;;;;;;;;5056470;28;45513;-73
2022/01/05 02:41:03;;;;;;;;;3.75;2.00;;;;;;;;5056454;28;45369;-73
2022/01/05 02:43:28;;;;;;;;;1.00;1.00;;;;;;;;5055148;28;46279;-73
2022/01/05 02:45:54;;;;;;;;;2.00;2.00;;;;;;;;5056467;28;45494;-73
2022/01/05 02:48:19;;;;;;;;;3.00;2.00;;;;;;;;5056128;28;45490;-73
2022/01/05 02:50:44;;;;;;;;;5.00;3.00;;;;;;;;5055981;28;45257;-73
2022/01/05 02:53:09;;;;;;;;;2.75;2.25;;;;;;;;5056127;28;46826;-73
2022/01/05 02:55:35;;;;;;;;;4.50;3.00;;;;;;;;5056421;28;45524;-73
2022/01/05 02:58:00;;;;;;;;;17.50;9.50;;;;;;;;5056354;28;45351;-73
2022/01/05 03:00:25;;;;;;;;;12.00;10.50;;;;;;;;5055242;28;47245;-73
2022/01/05 03:02:50;;;;;;;;;23.50;18.25;;;;;;;;5055717;28;47379;-73
2022/01/05 03:05:16;;;;;;;;;16.50;14.00;;;;;;;;5055804;28;45327;-73
2022/01/05 03:07:41;;;;;;;;;29.00;26.25;;;;;;;;5056273;28;45730;-73
2022/01/05 03:10:07;;;;;;;;;24.00;17.50;;;;;;;;5056126;28;45547;-74
2022/01/05 03:12:33;;;;;;;;;7.75;7.75;;;;;;;;5055678;28;46247;-73
2022/01/05 03:14:58;;;;;;;;;8.25;8.00;;;;;;;;5056094;28;45382;-73
2022/01/05 03:17:23;;;;;;;;;5.50;4.00;;;;;;;;5056109;28;45474;-73
2022/01/05 03:19:48;;;;;;;;;6.00;4.00;;;;;;;;5055430;28;45467;-74
2022/01/05 03:22:13;;;;;;;;;9.00;7.00;;;;;;;;5056213;28;45294;-74
2022/01/05 03:24:39;;;;;;;;;7.00;4.75;;;;;;;;5055972;28;45491;-74
2022/01/05 03:27:04;;;;;;;;;5.25;4.00;;;;;;;;5055431;28;45462;-74
2022/01/05 03:29:29;;;;;;;;;4.50;3.00;;;;;;;;5055920;28;45395;-73
2022/01/05 03:31:55;;;;;;;;;6.25;4.00;;;;;;;;5053616;28;46163;-73
2022/01/05 03:34:20;;;;;;;;;8.50;7.00;;;;;;;;5055814;28;45435;-73
2022/01/05 03:36:46;;;;;;;;;9.75;7.50;;;;;;;;5056028;28;45510;-74
2022/01/05 03:39:11;;;;;;;;;3.00;3.00;;;;;;;;5054868;28;45388;-74
2022/01/05 03:41:36;;;;;;;;;5.50;4.00;;;;;;;;5055423;28;45265;-74
2022/01/05 03:44:02;;;;;;;;;6.50;3.00;;;;;;;;5055289;28;45379;-74
2022/01/05 03:46:27;;;;;;;;;4.50;2.50;;;;;;;;5055543;28;45431;-74
2022/01/05 03:48:53;;;;;;;;;4.50;3.75;;;;;;;;5055334;28;45395;-74
2022/01/05 03:51:18;;;;;;;;;6.00;3.75;;;;;;;;5054480;28;46404;-74
2022/01/05 03:53:43;;;;;;;;;8.00;7.75;;;;;;;;5053479;28;45450;-74
2022/01/05 03:56:09;;;;;;;;;7.75;5.25;;;;;;;;5055527;28;46108;-74
2022/01/05 03:58:34;;;;;;;;;6.75;4.50;;;;;;;;5055074;28;45438;-74
2022/01/05 04:00:59;;;;;;;;;12.25;9.50;;;;;;;;5055376;28;47095;-74
2022/01/05 04:03:24;;;;;;;;;9.00;8.75;;;;;;;;5054135;28;45409;-74
2022/01/05 04:05:50;;;;;;;;;15.00;9.00;;;;;;;;5054990;28;45412;-74
2022/01/05 04:08:15;;;;;;;;;15.25;14.75;;;;;;;;5055260;28;45442;-74
2022/01/05 04:10:40;;;;;;;;;9.75;8.25;;;;;;;;5054928;28;46210;-73
2022/01/05 04:13:06;;;;;;;;;5.25;5.25;;;;;;;;5053869;28;45656;-72
2022/01/05 04:15:31;;;;;;;;;8.75;7.75;;;;;;;;5058013;28;45395;-75
2022/01/05 04:17:56;;;;;;;;;5.25;3.50;;;;;;;;5058059;28;45492;-72
2022/01/05 04:20:21;;;;;;;;;3.00;3.00;;;;;;;;5056446;28;46317;-73
2022/01/05 04:22:47;;;;;;;;;4.00;2.50;;;;;;;;5058475;28;45353;-72
2022/01/05 04:25:13;;;;;;;;;3.25;1.00;;;;;;;;5058759;28;45500;-73
2022/01/05 04:27:38;;;;;;;;;2.00;2.00;;;;;;;;5058526;28;45265;-74
2022/01/05 04:30:04;;;;;;;;;2.75;2.00;;;;;;;;5057507;28;47369;-74
2022/01/05 04:32:29;;;;;;;;;2.00;1.00;;;;;;;;5057853;28;45419;-73
2022/01/05 04:34:55;;;;;;;;;5.00;3.00;;;;;;;;5058367;28;45325;-74
2022/01/05 04:37:20;;;;;;;;;3.00;2.00;;;;;;;;5057892;28;45459;-73
2022/01/05 04:39:45;;;;;;;;;3.00;1.00;;;;;;;;5058217;28;46477;-74
2022/01/05 04:42:11;;;;;;;;;1.75;1.50;;;;;;;;5057520;28;45363;-74
2022/01/05 04:44:36;;;;;;;;;2.00;2.00;;;;;;;;5039768;28;45785;-74
2022/01/05 04:47:01;;;;;;;;;2.50;2.50;;;;;;;;5057668;28;45367;-73
2022/01/05 04:49:26;;;;;;;;;6.00;1.00;;;;;;;;5057862;28;45854;-71
2022/01/05 04:51:52;;;;;;;;;2.75;2.50;;;;;;;;5058075;28;45486;-72
2022/01/05 04:54:17;;;;;;;;;3.00;2.00;;;;;;;;5057141;28;45332;-73
2022/01/05 04:56:42;;;;;;;;;4.75;2.75;;;;;;;;5057692;28;45383;-73
2022/01/05 04:59:07;;;;;;;;;2.50;1.50;;;;;;;;5055473;28;46617;-71
2022/01/05 05:01:33;;;;;;;;;4.25;2.50;;;;;;;;5057504;28;45305;-72
2022/01/05 05:03:58;;;;;;;;;2.00;1.00;;;;;;;;5057767;28;45338;-74
2022/01/05 05:06:23;;;;;;;;;1.75;1.25;;;;;;;;5056997;28;45285;-74
2022/01/05 05:08:49;;;;;;;;;2.50;1.50;;;;;;;;5057465;28;46062;-74
2022/01/05 05:11:15;;;;;;;;;2.00;2.00;;;;;;;;5056391;28;45427;-73
2022/01/05 05:13:40;;;;;;;;;1.75;0.75;;;;;;;;5057278;28;45521;-73
2022/01/05 05:16:05;;;;;;;;;2.25;2.00;;;;;;;;5056931;28;45537;-74
2022/01/05 05:18:30;;;;;;;;;1.00;1.00;;;;;;;;5055886;28;47049;-73
2022/01/05 05:20:56;;;;;;;;;2.00;2.00;;;;;;;;5039597;28;45710;-73
2022/01/05 05:23:21;;;;;;;;;3.25;1.00;;;;;;;;5057028;28;45524;-73
2022/01/05 05:25:46;;;;;;;;;3.50;1.25;;;;;;;;5056783;28;45365;-73
2022/01/05 05:28:11;;;;;;;;;2.50;1.25;;;;;;;;5056911;28;45355;-74
2022/01/05 05:30:37;;;;;;;;;3.25;2.50;;;;;;;;5056034;28;45276;-73
2022/01/05 05:33:05;;;;;;;;;4.50;3.25;;;;;;;;5059180;28;45360;-73
2022/01/05 05:35:30;;;;;;;;;10.00;8.00;;;;;;;;5056900;28;45602;-72
2022/01/05 05:37:56;;;;;;;;;8.25;7.00;;;;;;;;5056666;28;46182;-74
2022/01/05 05:40:21;;;;;;;;;8.00;3.50;;;;;;;;5056767;28;45485;-73
2022/01/05 05:42:46;;;;;;;;;7.25;7.00;;;;;;;;5056447;28;45352;-73
2022/01/05 05:45:11;;;;;;;;;4.75;4.75;;;;;;;;5053405;28;45520;-74
2022/01/05 05:47:37;;;;;;;;;7.00;3.50;;;;;;;;5056427;28;47275;-74
2022/01/05 05:50:03;;;;;;;;;3.25;2.00;;;;;;;;5056197;28;45489;-74
2022/01/05 05:52:29;;;;;;;;;1.75;1.75;;;;;;;;5056369;28;45265;-73
2022/01/05 05:54:54;;;;;;;;;4.00;4.00;;;;;;;;5056547;28;45667;-73
2022/01/05 05:57:19;;;;;;;;;2.00;2.00;;;;;;;;5055102;28;46786;-73
2022/01/05 05:59:44;;;;;;;;;3.00;2.00;;;;;;;;5055352;28;45716;-73
2022/01/05 06:02:10;;;;;;;;;7.75;3.00;;;;;;;;5055697;28;45368;-72
2022/01/05 06:04:35;;;;;;;;;4.50;1.75;;;;;;;;5056224;28;45539;-74
2022/01/05 06:07:00;;;;;;;;;5.75;2.25;;;;;;;;5056118;28;45210;-72
2022/01/05 06:09:25;;;;;;;;;7.00;5.25;;;;;;;;5055007;28;45252;-72
2022/01/05 06:11:50;;;;;;;;;5.50;2.00;;;;;;;;5055599;28;45170;-74
2022/01/05 06:14:16;;;;;;;;;4.00;1.50;;;;;;;;5054842;28;45526;-73
2022/01/05 06:16:43;;;;;;;;;4.50;3.00;;;;;;;;5055250;28;46231;-73
2022/01/05 06:19:08;;;;;;;;;6.75;3.25;;;;;;;;5054363;28;45332;-72
2022/01/05 06:21:33;;;;;;;;;4.00;3.00;;;;;;;;5055117;28;45359;-73
2022/01/05 06:23:58;;;;;;;;;2.75;2.75;;;;;;;;5053176;28;45456;-73
2022/01/05 06:26:24;;;;;;;;;8.75;7.50;;;;;;;;5054537;28;46265;-72
2022/01/05 06:28:50;;;;;;;;;6.00;4.00;;;;;;;;5054930;28;45470;-73
2022/01/05 06:31:15;;;;;;;;;12.75;8.25;;;;;;;;5055387;28;45343;-74
2022/01/05 06:33:40;;;;;;;;;2.50;2.50;;;;;;;;5055181;28;45276;-73
2022/01/05 06:36:06;;;;;;;;;2.00;2.00;;;;;;;;5053663;28;46405;-76
2022/01/05 06:38:31;;;;;;;;;2.75;2.75;;;;;;;;5055003;28;45288;-74
2022/01/05 06:40:56;;;;;;;;;3.75;3.50;;;;;;;;5055203;28;45241;-74
2022/01/05 06:43:21;;;;;;;;;5.50;2.75;;;;;;;;5055392;28;45384;-73
2022/01/05 06:45:47;;;;;;;;;2.00;2.00;;;;;;;;5036677;28;48099;-73
2022/01/05 06:48:12;;;;;;;;;5.25;3.00;;;;;;;;5053728;28;45302;-74
2022/01/05 06:50:37;;;;;;;;;1.50;1.00;;;;;;;;5053764;28;45513;-74
2022/01/05 06:53:02;;;;;;;;;3.00;1.25;;;;;;;;5054139;28;45361;-74
2022/01/05 06:55:27;;;;;;;;;3.00;3.00;;;;;;;;5054367;28;45437;-74
2022/01/05 06:57:53;;;;;;;;;1.00;1.00;;;;;;;;5054633;28;45446;-72
2022/01/05 07:00:20;;;;;;;;;2.25;2.00;;;;;;;;5054037;28;45331;-72
2022/01/05 07:02:45;;;;;;;;;7.00;6.75;;;;;;;;5054022;28;45276;-73
2022/01/05 07:05:10;;;;;;;;;3.75;1.50;;;;;;;;5054020;28;45444;-74
2022/01/05 07:07:36;;;;;;;;;3.00;3.00;;;;;;;;5053787;28;45648;-72
2022/01/05 07:10:03;;;;;;;;;2.50;1.50;;;;;;;;5054195;28;47660;-74
2022/01/05 07:12:28;;;;;;;;;1.25;1.00;;;;;;;;5052992;28;45439;-74
2022/01/05 07:14:53;;;;;;;;;3.50;2.50;;;;;;;;5054037;28;46184;-75
2022/01/05 07:17:18;;;;;;;;;1.75;1.00;;;;;;;;5053480;28;45466;-78
2022/01/05 07:19:44;;;;;;;;;1.00;1.00;;;;;;;;5053607;28;45483;-76
2022/01/05 07:22:09;;;;;;;;;2.00;2.00;;;;;;;;5036607;28;45474;-75
2022/01/05 07:24:34;;;;;;;;;4.00;2.50;;;;;;;;5035249;28;48371;-78
2022/01/05 07:26:59;;;;;;;;;2.00;1.00;;;;;;;;5053721;28;46138;-77
2022/01/05 07:29:24;;;;;;;;;0.25;0.00;;;;;;;;5053536;28;45517;-77
2022/01/05 07:31:50;;;;;;;;;6.75;2.00;;;;;;;;5053809;28;45358;-77
2022/01/05 07:34:15;;;;;;;;;3.75;1.00;;;;;;;;5053388;28;45563;-76
2022/01/05 07:36:41;;;;;;;;;2.50;1.50;;;;;;;;5051334;28;45589;-77
2022/01/05 07:39:06;;;;;;;;;1.75;0.75;;;;;;;;5052882;28;45433;-75
2022/01/05 07:41:32;;;;;;;;;3.00;2.00;;;;;;;;5052897;28;45456;-77
2022/01/05 07:43:57;;;;;;;;;2.50;1.00;;;;;;;;5033043;28;48247;-76
2022/01/05 07:46:22;;;;;;;;;6.50;3.00;;;;;;;;5051287;28;45448;-77
2022/01/05 07:48:48;;;;;;;;;3.75;2.00;;;;;;;;5053248;28;45502;-77
2022/01/05 07:51:13;;;;;;;;;1.00;0.50;;;;;;;;5054271;28;45361;-77
2022/01/05 07:53:38;;;;;;;;;1.00;1.00;;;;;;;;5058239;28;45260;-73
2022/01/05 07:56:03;;;;;;;;;0.75;0.25;;;;;;;;5057949;28;45611;-75
2022/01/05 07:58:29;;;;;;;;;3.75;2.00;;;;;;;;5057104;28;45384;-77
2022/01/05 08:00:54;;;;;;;;;1.75;1.75;;;;;;;;5056820;28;45611;-78
2022/01/05 08:03:19;;;;;;;;;5.25;2.50;;;;;;;;5055743;28;46258;-77
2022/01/05 08:05:44;;;;;;;;;1.25;1.25;;;;;;;;5055463;28;45441;-78
2022/01/05 08:08:10;;;;;;;;;2.50;2.25;;;;;;;;5056958;28;45560;-77
2022/01/05 08:10:35;;;;;;;;;2.00;2.00;;;;;;;;5055873;28;45415;-76
2022/01/05 08:13:00;;;;;;;;;5.25;5.25;;;;;;;;5056830;28;45966;-77
2022/01/05 08:15:25;;;;;;;;;2.50;1.50;;;;;;;;5054906;28;45571;-77
2022/01/05 08:17:50;;;;;;;;;2.75;1.75;;;;;;;;5056251;28;45557;-78
2022/01/05 08:20:16;;;;;;;;;2.00;2.00;;;;;;;;5054674;28;45245;-76
2022/01/05 08:22:42;;;;;;;;;6.25;6.25;;;;;;;;5056508;28;46328;-76
2022/01/05 08:25:11;;;;;;;;;4.00;1.25;;;;;;;;5056467;28;45584;-77
2022/01/05 08:27:36;;;;;;;;;2.75;2.75;;;;;;;;5055349;28;45199;-78
2022/01/05 08:30:05;;;;;;;;;3.25;2.25;;;;;;;;5055039;28;45282;-77
2022/01/05 08:32:31;;;;;;;;;0.75;0.25;;;;;;;;5056078;28;45905;-77
2022/01/05 08:34:56;;;;;;;;;3.75;2.00;;;;;;;;5055140;28;45938;-77
2022/01/05 08:37:21;;;;;;;;;3.50;2.00;;;;;;;;5037673;28;45305;-76
2022/01/05 08:39:49;;;;;;;;;4.75;3.50;;;;;;;;5038068;28;45564;-76
2022/01/05 08:42:15;;;;;;;;;8.75;4.50;;;;;;;;5054735;28;45639;-77
2022/01/05 08:44:40;;;;;;;;;2.75;2.00;;;;;;;;5056740;28;45511;-77
2022/01/05 08:47:07;;;;;;;;;1.00;1.00;;;;;;;;5057120;28;45389;-77
2022/01/05 08:49:32;;;;;;;;;3.25;2.50;;;;;;;;5054651;28;45446;-77
2022/01/05 08:51:58;;;;;;;;;1.00;1.00;;;;;;;;5054977;28;45310;-76
2022/01/05 08:54:23;;;;;;;;;4.50;4.50;;;;;;;;5054412;28;45312;-76
2022/01/05 08:56:49;;;;;;;;;1.75;1.75;;;;;;;;5055055;28;45455;-77
2022/01/05 08:59:15;;;;;;;;;3.50;2.50;;;;;;;;5055398;28;45418;-76
2022/01/05 09:01:42;;;;;;;;;3.00;3.00;;;;;;;;5055097;28;45406;-76
2022/01/05 09:04:08;;;;;;;;;2.50;2.50;;;;;;;;5058061;28;45396;-77
2022/01/05 09:06:33;;;;;;;;;3.25;2.00;;;;;;;;5037223;28;45356;-77
2022/01/05 09:08:58;;;;;;;;;1.00;1.00;;;;;;;;5055271;28;45488;-78
2022/01/05 09:11:24;;;;;;;;;2.00;1.00;;;;;;;;5054922;28;45547;-77
2022/01/05 09:13:49;;;;;;;;;3.00;3.00;;;;;;;;5055583;28;45360;-73
2022/01/05 09:16:15;;;;;;;;;4.50;2.25;;;;;;;;5054763;28;45509;-74
2022/01/05 09:18:40;;;;;;;;;4.00;4.00;;;;;;;;5055144;28;45472;-74
2022/01/05 09:21:05;;;;;;;;;3.50;1.25;;;;;;;;5054578;28;46412;-76
2022/01/05 09:23:30;;;;;;;;;4.00;1.50;;;;;;;;5055068;28;45399;-74
2022/01/05 09:25:56;;;;;;;;;3.50;2.00;;;;;;;;5056899;28;46316;-75
2022/01/05 09:28:21;;;;;;;;;2.50;2.00;;;;;;;;5055517;28;45540;-74
2022/01/05 09:30:46;;;;;;;;;7.00;5.25;;;;;;;;5055580;28;47261;-76
2022/01/05 09:33:15;;;;;;;;;7.25;2.00;;;;;;;;5054371;28;45276;-75
2022/01/05 09:35:41;;;;;;;;;6.75;3.00;;;;;;;;5056069;28;45525;-77
2022/01/05 09:38:10;;;;;;;;;7.00;4.00;;;;;;;;5056379;28;45492;-75
2022/01/05 09:43:21;;;;;;;;;5.00;4.00;;;;;;;;5054724;28;45626;-74
2022/01/05 09:46:09;;;;;;;;;4.00;4.00;;;;;;;;5054121;28;45811;-72
2022/01/05 09:48:52;;;;;;;;;3.25;3.25;;;;;;;;5050033;28;45413;-75
2022/01/05 09:51:18;;;;;;;;;2.00;1.75;;;;;;;;5052582;28;46424;-75
2022/01/05 09:53:43;;;;;;;;;2.25;2.25;;;;;;;;5053311;28;45297;-75
2022/01/05 09:56:09;;;;;;;;;4.50;2.00;;;;;;;;5036945;28;45419;-75
2022/01/05 09:58:36;;;;;;;;;6.50;4.75;;;;;;;;5055622;28;45425;-76
2022/01/05 10:01:02;;;;;;;;;4.50;3.00;;;;;;;;5056029;28;46150;-76
2022/01/05 10:03:28;;;;;;;;;4.25;4.25;;;;;;;;5053542;28;45309;-74
2022/01/05 10:05:53;;;;;;;;;4.00;2.50;;;;;;;;5056379;28;45415;-76
2022/01/05 10:08:18;;;;;;;;;3.00;3.00;;;;;;;;5054562;28;45606;-76
2022/01/05 10:10:43;;;;;;;;;4.00;2.75;;;;;;;;5054139;28;46261;-75
2022/01/05 10:13:09;;;;;;;;;4.00;3.00;;;;;;;;5053919;28;45387;-77
2022/01/05 10:15:34;;;;;;;;;1.75;1.00;;;;;;;;5054072;28;45519;-74
2022/01/05 10:18:17;;;;;;;;;3.75;2.25;;;;;;;;5054753;27;45348;-75
2022/01/05 10:20:54;;;;;;;;;2.50;2.50;;;;;;;;5053718;28;46971;-75
2022/01/05 10:23:31;;;;;;;;;3.50;2.25;;;;;;;;5054380;28;45374;-76
2022/01/05 10:26:16;;;;;;;;;2.75;1.75;;;;;;;;5054673;28;45454;-76
2022/01/05 10:28:42;;;;;;;;;2.50;2.50;;;;;;;;5053504;28;45505;-76
2022/01/05 10:31:12;;;;;;;;;4.00;3.50;;;;;;;;5054183;28;46268;-75
2022/01/05 10:33:37;;;;;;;;;10.75;9.75;;;;;;;;5054198;28;45377;-77
2022/01/05 10:36:03;;;;;;;;;4.00;3.25;;;;;;;;5053399;28;45382;-75
2022/01/05 10:38:28;;;;;;;;;6.50;3.50;;;;;;;;5054552;28;45673;-75
2022/01/05 10:40:54;;;;;;;;;6.50;4.00;;;;;;;;5053150;28;47294;-76
2022/01/05 10:43:19;;;;;;;;;3.50;3.50;;;;;;;;5037658;28;45516;-76
2022/01/05 10:45:46;;;;;;;;;4.75;4.00;;;;;;;;5053817;28;45726;-75
2022/01/05 10:48:13;;;;;;;;;2.00;2.00;;;;;;;;5053568;28;45330;-76
2022/01/05 10:50:38;;;;;;;;;3.75;1.25;;;;;;;;5053244;28;45469;-75
2022/01/05 10:53:04;;;;;;;;;4.25;3.75;;;;;;;;5053963;28;45465;-76
2022/01/05 10:55:30;;;;;;;;;4.00;3.25;;;;;;;;5054074;28;45471;-76
2022/01/05 10:58:12;;;;;;;;;5.25;4.25;;;;;;;;5053719;28;45459;-76
2022/01/05 11:00:50;;;;;;;;;7.00;4.25;;;;;;;;5051537;28;46093;-76
2022/01/05 11:03:43;;;;;;;;;1.75;0.75;;;;;;;;5052563;28;45379;-75
2022/01/05 11:06:08;;;;;;;;;7.00;4.50;;;;;;;;5049867;28;45393;-76
2022/01/05 11:08:55;;;;;;;;;3.25;3.25;;;;;;;;5052042;28;45548;-75
2022/01/05 11:11:29;;;;;;;;;6.00;4.75;;;;;;;;5051831;28;47152;-77
2022/01/05 11:13:54;;;;;;;;;5.25;3.25;;;;;;;;5047086;28;45416;-78
2022/01/05 11:16:24;;;;;;;;;2.50;2.50;;;;;;;;5054069;28;45391;-77
2022/01/05 11:18:50;;;;;;;;;4.00;2.75;;;;;;;;5053186;28;45344;-77
2022/01/05 11:21:18;;;;;;;;;6.00;4.00;;;;;;;;5053635;28;46009;-77
2022/01/05 11:23:43;;;;;;;;;5.25;2.25;;;;;;;;5054592;28;45442;-78
2022/01/05 11:26:09;;;;;;;;;4.00;3.00;;;;;;;;5053019;28;45579;-77
2022/01/05 11:28:34;;;;;;;;;6.75;5.75;;;;;;;;5055192;28;45482;-77
2022/01/05 11:30:59;;;;;;;;;4.00;2.25;;;;;;;;5054031;28;45348;-77
2022/01/05 11:33:25;;;;;;;;;2.50;2.00;;;;;;;;5052866;28;45387;-77
2022/01/05 11:35:50;;;;;;;;;5.00;5.00;;;;;;;;5061273;28;45393;-77
2022/01/05 11:38:16;;;;;;;;;5.00;2.00;;;;;;;;5054487;28;45254;-75
2022/01/05 11:40:45;;;;;;;;;4.00;2.75;;;;;;;;5053709;28;47280;-77
2022/01/05 11:43:15;;;;;;;;;3.75;3.75;;;;;;;;5053106;28;45281;-77
2022/01/05 11:45:47;;;;;;;;;3.50;3.50;;;;;;;;5054312;28;45550;-77
2022/01/05 11:48:15;;;;;;;;;4.50;3.00;;;;;;;;5052859;28;45387;-78
2022/01/05 11:50:45;;;;;;;;;5.25;3.50;;;;;;;;5053030;28;45436;-78
2022/01/05 11:53:10;;;;;;;;;2.75;1.50;;;;;;;;5053346;28;47149;-78
2022/01/05 11:55:57;;;;;;;;;4.50;3.00;;;;;;;;5053911;28;45765;-78
2022/01/05 11:58:25;;;;;;;;;3.50;3.50;;;;;;;;5050599;28;45770;-75
2022/01/05 12:01:09;;;;;;;;;2.00;2.00;;;;;;;;5056217;28;45259;-78
2022/01/05 12:03:43;;;;;;;;;3.25;2.00;;;;;;;;5053793;28;45356;-78
2022/01/05 12:06:08;;;;;;;;;2.67;1.33;;;;;;;;5050621;28;45457;-78
2022/01/05 12:08:44;;;;;;;;;5.75;2.75;;;;;;;;5052962;28;45407;-78
2022/01/05 12:11:29;;;;;;;;;4.75;4.25;;;;;;;;5052760;28;47311;-77
2022/01/05 12:13:57;;;;;;;;;2.75;2.00;;;;;;;;5056985;28;45434;-74
2022/01/05 12:16:23;;;;;;;;;1.00;1.00;;;;;;;;5052961;28;45529;-77
2022/01/05 12:19:25;;;;;;;;;4.00;4.00;;;;;;;;5054190;28;46039;-77
2022/01/05 12:21:53;;;;;;;;;4.00;3.33;;;;;;;;4958235;28;47468;-74
2022/01/05 12:24:19;;;;;;;;;2.00;2.00;;;;;;;;4975472;28;45381;-76
2022/01/05 12:26:45;;;;;;;;;5.33;4.33;;;;;;;;4960019;28;45543;-76
2022/01/05 12:29:10;;;;;;;;;4.00;2.33;;;;;;;;4964219;28;45532;-76
2022/01/05 12:31:47;;;;;;;;;4.67;4.00;;;;;;;;4964306;28;46062;-77
2022/01/05 12:34:13;;;;;;;;;4.00;3.67;;;;;;;;4971178;28;45355;-77
2022/01/05 12:36:38;;;;;;;;;2.67;2.00;;;;;;;;4975262;28;45292;-75
2022/01/05 12:39:08;;;;;;;;;4.00;1.67;;;;;;;;4975931;28;45747;-76
2022/01/05 12:41:37;;;;;;;;;2.67;2.33;;;;;;;;4976145;28;46352;-75
2022/01/05 12:44:05;;;;;;;;;2.00;2.00;;;;;;;;4974870;28;45490;-77
2022/01/05 12:46:33;;;;;;;;;4.67;3.00;;;;;;;;4973829;28;45461;-75
2022/01/05 12:48:59;;;;;;;;;1.00;1.00;;;;;;;;4973540;28;45480;-77
2022/01/05 12:51:35;;;;;;;;;4.00;2.00;;;;;;;;4974171;28;46578;-76
2022/01/05 12:54:06;;;;;;;;;3.75;2.50;;;;;;;;4973367;28;45402;-75
2022/01/05 12:56:36;;;;;;;;;3.25;2.00;;;;;;;;4985576;28;45739;-76
2022/01/05 12:59:03;;;;;;;;;3.50;2.50;;;;;;;;5056110;28;45454;-74
2022/01/05 13:01:29;;;;;;;;;3.00;3.00;;;;;;;;5056025;28;46219;-74
2022/01/05 13:03:55;;;;;;;;;3.00;3.00;;;;;;;;5040153;28;45420;-73
2022/01/05 13:06:21;;;;;;;;;4.50;3.25;;;;;;;;5055651;28;45311;-76
2022/01/05 13:08:47;;;;;;;;;3.50;3.50;;;;;;;;5055633;28;45589;-74
2022/01/05 13:11:13;;;;;;;;;1.25;1.25;;;;;;;;5055705;28;46424;-76
2022/01/05 13:13:41;;;;;;;;;2.00;2.00;;;;;;;;5056093;28;45455;-74
2022/01/05 13:16:07;;;;;;;;;5.50;4.50;;;;;;;;5055720;28;45417;-75
2022/01/05 13:18:33;;;;;;;;;2.50;2.50;;;;;;;;5054803;28;45514;-73
2022/01/05 13:20:58;;;;;;;;;1.00;1.00;;;;;;;;5037508;28;48613;-74
2022/01/05 13:23:23;;;;;;;;;6.00;3.25;;;;;;;;5055033;28;45498;-75
2022/01/05 13:25:48;;;;;;;;;3.00;1.75;;;;;;;;5055388;28;45394;-75
2022/01/05 13:28:14;;;;;;;;;2.00;2.00;;;;;;;;5053787;28;45518;-75
2022/01/05 13:30:39;;;;;;;;;4.00;3.00;;;;;;;;5055981;28;46132;-73
2022/01/05 13:33:06;;;;;;;;;5.00;4.25;;;;;;;;5054684;28;45448;-75
2022/01/05 13:35:38;;;;;;;;;4.50;3.50;;;;;;;;5055338;28;45320;-74
2022/01/05 13:38:04;;;;;;;;;3.50;2.50;;;;;;;;5055482;28;45466;-75
2022/01/05 13:40:31;;;;;;;;;3.00;3.00;;;;;;;;5055110;28;46256;-75
2022/01/05 13:42:58;;;;;;;;;3.00;2.00;;;;;;;;5055611;28;45248;-75
2022/01/05 13:45:28;;;;;;;;;3.25;2.50;;;;;;;;5050458;28;45378;-74
2022/01/05 13:47:57;;;;;;;;;4.00;4.00;;;;;;;;5057677;28;45262;-75
2022/01/05 13:50:31;;;;;;;;;2.75;2.75;;;;;;;;5054292;28;46110;-75
2022/01/05 13:52:58;;;;;;;;;3.75;3.75;;;;;;;;5054430;28;45438;-75
2022/01/05 13:55:34;;;;;;;;;3.50;3.50;;;;;;;;5037347;28;45603;-76
2022/01/05 13:58:09;;;;;;;;;3.25;2.25;;;;;;;;5041388;28;45483;-74
2022/01/05 14:00:35;;;;;;;;;5.25;3.50;;;;;;;;5054053;28;47264;-75
2022/01/05 14:03:00;;;;;;;;;6.00;1.00;;;;;;;;5055138;28;45447;-75
2022/01/05 14:05:25;;;;;;;;;4.00;4.00;;;;;;;;5036840;28;45540;-75
2022/01/05 14:08:20;;;;;;;;;4.25;2.75;;;;;;;;5054999;28;45616;-74
2022/01/05 14:10:45;;;;;;;;;7.00;5.00;;;;;;;;5025958;28;47387;-74
2022/01/05 14:13:10;;;;;;;;;7.25;6.75;;;;;;;;5053951;28;45313;-74
2022/01/05 14:15:36;;;;;;;;;4.50;3.25;;;;;;;;5054153;28;45443;-74
2022/01/05 14:18:04;;;;;;;;;2.50;1.50;;;;;;;;5054756;28;45380;-74
2022/01/05 14:20:30;;;;;;;;;3.00;1.25;;;;;;;;5054738;28;45329;-76
2022/01/05 14:23:18;;;;;;;;;2.00;1.75;;;;;;;;5055153;28;45396;-74
2022/01/05 14:25:58;;;;;;;;;3.75;3.75;;;;;;;;5043963;28;45401;-75
2022/01/05 14:28:24;;;;;;;;;3.00;2.75;;;;;;;;5054327;28;45540;-75
2022/01/05 14:30:51;;;;;;;;;3.25;2.00;;;;;;;;5052730;28;46292;-74
2022/01/05 14:33:26;;;;;;;;;3.75;2.00;;;;;;;;5035665;28;45553;-75
2022/01/05 14:35:51;;;;;;;;;2.25;2.25;;;;;;;;5036234;28;45356;-74
2022/01/05 14:38:16;;;;;;;;;1.50;1.50;;;;;;;;5054261;28;45556;-74
2022/01/05 14:40:41;;;;;;;;;3.25;3.00;;;;;;;;5053764;28;46052;-75